sensor_id;sensor_type;location;lat;lon;timestamp;P1;durP1;ratioP1;P2;durP2;ratioP2
20966;SDS011;10642;50.682;18.510;2022-12-18T00:01:33;65.97;;;26.20;;
20966;SDS011;10642;50.682;18.510;2022-12-18T00:04:01;65.90;;;27.70;;
20966;SDS011;10642;50.682;18.510;2022-12-18T00:06:29;69.47;;;24.30;;
20966;SDS011;10642;50.682;18.510;2022-12-18T00:08:57;70.43;;;25.90;;
20966;SDS011;10642;50.682;18.510;2022-12-18T00:11:25;64.37;;;26.83;;
20966;SDS011;10642;50.682;18.510;2022-12-18T00:13:53;68.97;;;26.37;;
20966;SDS011;10642;50.682;18.510;2022-12-18T00:16:21;72.23;;;27.37;;
20966;SDS011;10642;50.682;18.510;2022-12-18T00:18:49;67.43;;;25.20;;
20966;SDS011;10642;50.682;18.510;2022-12-18T00:21:16;73.10;;;25.37;;
20966;SDS011;10642;50.682;18.510;2022-12-18T00:23:45;64.90;;;25.80;;
20966;SDS011;10642;50.682;18.510;2022-12-18T00:26:13;71.37;;;29.07;;
20966;SDS011;10642;50.682;18.510;2022-12-18T00:28:42;65.83;;;25.53;;
20966;SDS011;10642;50.682;18.510;2022-12-18T00:31:12;59.17;;;24.70;;
20966;SDS011;10642;50.682;18.510;2022-12-18T00:33:40;57.07;;;23.90;;
20966;SDS011;10642;50.682;18.510;2022-12-18T00:36:28;68.57;;;26.03;;
20966;SDS011;10642;50.682;18.510;2022-12-18T00:38:55;63.67;;;25.57;;
20966;SDS011;10642;50.682;18.510;2022-12-18T00:41:22;70.07;;;26.23;;
20966;SDS011;10642;50.682;18.510;2022-12-18T00:44:09;71.60;;;27.27;;
20966;SDS011;10642;50.682;18.510;2022-12-18T00:46:36;61.30;;;25.63;;
20966;SDS011;10642;50.682;18.510;2022-12-18T00:49:03;67.30;;;25.93;;
20966;SDS011;10642;50.682;18.510;2022-12-18T00:51:30;60.13;;;25.27;;
20966;SDS011;10642;50.682;18.510;2022-12-18T00:53:57;64.83;;;25.30;;
20966;SDS011;10642;50.682;18.510;2022-12-18T00:56:24;55.20;;;21.40;;
20966;SDS011;10642;50.682;18.510;2022-12-18T00:58:51;63.63;;;23.17;;
20966;SDS011;10642;50.682;18.510;2022-12-18T01:01:18;65.33;;;24.50;;
20966;SDS011;10642;50.682;18.510;2022-12-18T01:03:46;64.33;;;25.53;;
20966;SDS011;10642;50.682;18.510;2022-12-18T01:06:15;58.90;;;23.93;;
20966;SDS011;10642;50.682;18.510;2022-12-18T01:08:43;60.90;;;24.03;;
20966;SDS011;10642;50.682;18.510;2022-12-18T01:11:12;60.50;;;24.00;;
20966;SDS011;10642;50.682;18.510;2022-12-18T01:13:40;56.07;;;22.03;;
20966;SDS011;10642;50.682;18.510;2022-12-18T01:16:07;61.80;;;23.87;;
20966;SDS011;10642;50.682;18.510;2022-12-18T01:18:35;56.63;;;23.80;;
20966;SDS011;10642;50.682;18.510;2022-12-18T01:21:09;59.83;;;24.93;;
20966;SDS011;10642;50.682;18.510;2022-12-18T01:23:37;56.17;;;22.00;;
20966;SDS011;10642;50.682;18.510;2022-12-18T01:26:05;56.37;;;23.00;;
20966;SDS011;10642;50.682;18.510;2022-12-18T01:28:34;68.03;;;30.20;;
20966;SDS011;10642;50.682;18.510;2022-12-18T01:31:16;68.33;;;25.63;;
20966;SDS011;10642;50.682;18.510;2022-12-18T01:33:43;58.33;;;23.20;;
20966;SDS011;10642;50.682;18.510;2022-12-18T01:36:17;57.77;;;22.47;;
20966;SDS011;10642;50.682;18.510;2022-12-18T01:38:45;64.60;;;23.53;;
20966;SDS011;10642;50.682;18.510;2022-12-18T01:41:13;55.43;;;22.53;;
20966;SDS011;10642;50.682;18.510;2022-12-18T01:43:44;55.53;;;23.17;;
20966;SDS011;10642;50.682;18.510;2022-12-18T01:46:11;60.60;;;23.33;;
20966;SDS011;10642;50.682;18.510;2022-12-18T01:48:39;56.40;;;22.17;;
20966;SDS011;10642;50.682;18.510;2022-12-18T01:51:07;61.27;;;23.13;;
20966;SDS011;10642;50.682;18.510;2022-12-18T01:53:34;58.50;;;22.77;;
20966;SDS011;10642;50.682;18.510;2022-12-18T01:56:01;60.57;;;24.00;;
20966;SDS011;10642;50.682;18.510;2022-12-18T02:01:13;57.97;;;23.83;;
20966;SDS011;10642;50.682;18.510;2022-12-18T02:03:41;65.40;;;22.43;;
20966;SDS011;10642;50.682;18.510;2022-12-18T02:08:43;54.07;;;21.37;;
20966;SDS011;10642;50.682;18.510;2022-12-18T02:11:22;52.27;;;20.43;;
20966;SDS011;10642;50.682;18.510;2022-12-18T02:16:29;61.20;;;23.83;;
20966;SDS011;10642;50.682;18.510;2022-12-18T02:19:03;56.17;;;22.97;;
20966;SDS011;10642;50.682;18.510;2022-12-18T02:26:48;57.17;;;22.83;;
20966;SDS011;10642;50.682;18.510;2022-12-18T02:29:21;60.07;;;20.70;;
20966;SDS011;10642;50.682;18.510;2022-12-18T02:31:54;55.43;;;21.00;;
20966;SDS011;10642;50.682;18.510;2022-12-18T02:34:26;56.93;;;21.57;;
20966;SDS011;10642;50.682;18.510;2022-12-18T02:36:54;52.67;;;20.13;;
20966;SDS011;10642;50.682;18.510;2022-12-18T02:39:22;62.77;;;20.60;;
20966;SDS011;10642;50.682;18.510;2022-12-18T02:42:00;60.57;;;21.87;;
20966;SDS011;10642;50.682;18.510;2022-12-18T02:44:35;58.73;;;21.07;;
20966;SDS011;10642;50.682;18.510;2022-12-18T02:47:03;54.60;;;20.87;;
20966;SDS011;10642;50.682;18.510;2022-12-18T02:49:43;61.33;;;21.70;;
20966;SDS011;10642;50.682;18.510;2022-12-18T02:52:31;54.40;;;21.07;;
20966;SDS011;10642;50.682;18.510;2022-12-18T03:00:24;41.63;;;17.30;;
20966;SDS011;10642;50.682;18.510;2022-12-18T03:05:43;45.90;;;17.27;;
20966;SDS011;10642;50.682;18.510;2022-12-18T03:08:22;55.23;;;18.97;;
20966;SDS011;10642;50.682;18.510;2022-12-18T03:10:57;53.83;;;21.20;;
20966;SDS011;10642;50.682;18.510;2022-12-18T03:13:39;54.57;;;20.43;;
20966;SDS011;10642;50.682;18.510;2022-12-18T03:16:13;54.57;;;20.77;;
20966;SDS011;10642;50.682;18.510;2022-12-18T03:18:56;54.43;;;18.97;;
20966;SDS011;10642;50.682;18.510;2022-12-18T03:21:28;55.93;;;19.00;;
20966;SDS011;10642;50.682;18.510;2022-12-18T03:23:57;51.97;;;18.63;;
20966;SDS011;10642;50.682;18.510;2022-12-18T03:26:26;47.87;;;17.90;;
20966;SDS011;10642;50.682;18.510;2022-12-18T03:28:59;54.10;;;20.50;;
20966;SDS011;10642;50.682;18.510;2022-12-18T03:31:30;57.53;;;20.23;;
20966;SDS011;10642;50.682;18.510;2022-12-18T03:34:03;51.23;;;20.07;;
20966;SDS011;10642;50.682;18.510;2022-12-18T03:36:40;50.93;;;21.37;;
20966;SDS011;10642;50.682;18.510;2022-12-18T03:39:07;53.80;;;18.87;;
20966;SDS011;10642;50.682;18.510;2022-12-18T03:52:21;52.63;;;20.67;;
20966;SDS011;10642;50.682;18.510;2022-12-18T03:54:52;49.73;;;20.77;;
20966;SDS011;10642;50.682;18.510;2022-12-18T03:57:21;60.37;;;20.93;;
20966;SDS011;10642;50.682;18.510;2022-12-18T03:59:53;53.27;;;19.97;;
20966;SDS011;10642;50.682;18.510;2022-12-18T04:02:25;48.50;;;18.60;;
20966;SDS011;10642;50.682;18.510;2022-12-18T04:04:53;46.87;;;18.47;;
20966;SDS011;10642;50.682;18.510;2022-12-18T04:07:22;51.40;;;18.80;;
20966;SDS011;10642;50.682;18.510;2022-12-18T04:09:50;46.47;;;17.57;;
20966;SDS011;10642;50.682;18.510;2022-12-18T04:12:24;43.13;;;17.17;;
20966;SDS011;10642;50.682;18.510;2022-12-18T04:14:51;56.43;;;20.03;;
20966;SDS011;10642;50.682;18.510;2022-12-18T04:17:18;47.10;;;17.60;;
20966;SDS011;10642;50.682;18.510;2022-12-18T04:19:46;46.10;;;17.83;;
20966;SDS011;10642;50.682;18.510;2022-12-18T04:22:13;50.43;;;19.90;;
20966;SDS011;10642;50.682;18.510;2022-12-18T04:24:44;47.37;;;17.00;;
20966;SDS011;10642;50.682;18.510;2022-12-18T04:27:23;49.30;;;19.13;;
20966;SDS011;10642;50.682;18.510;2022-12-18T04:29:50;49.77;;;18.57;;
20966;SDS011;10642;50.682;18.510;2022-12-18T04:32:17;43.03;;;17.27;;
20966;SDS011;10642;50.682;18.510;2022-12-18T04:34:46;46.30;;;17.37;;
20966;SDS011;10642;50.682;18.510;2022-12-18T04:37:13;44.20;;;16.63;;
20966;SDS011;10642;50.682;18.510;2022-12-18T04:39:41;47.40;;;16.50;;
20966;SDS011;10642;50.682;18.510;2022-12-18T04:42:15;46.07;;;16.33;;
20966;SDS011;10642;50.682;18.510;2022-12-18T04:44:42;49.97;;;16.03;;
20966;SDS011;10642;50.682;18.510;2022-12-18T04:47:09;49.40;;;17.40;;
20966;SDS011;10642;50.682;18.510;2022-12-18T04:49:35;41.43;;;15.97;;
20966;SDS011;10642;50.682;18.510;2022-12-18T04:52:02;42.23;;;15.80;;
20966;SDS011;10642;50.682;18.510;2022-12-18T04:54:32;39.00;;;15.83;;
20966;SDS011;10642;50.682;18.510;2022-12-18T04:56:59;41.37;;;15.93;;
20966;SDS011;10642;50.682;18.510;2022-12-18T04:59:26;38.30;;;13.90;;
20966;SDS011;10642;50.682;18.510;2022-12-18T05:01:52;41.27;;;15.07;;
20966;SDS011;10642;50.682;18.510;2022-12-18T05:04:20;47.70;;;16.27;;
20966;SDS011;10642;50.682;18.510;2022-12-18T05:06:46;40.77;;;14.30;;
20966;SDS011;10642;50.682;18.510;2022-12-18T05:09:14;46.03;;;15.97;;
20966;SDS011;10642;50.682;18.510;2022-12-18T05:11:41;42.80;;;16.67;;
20966;SDS011;10642;50.682;18.510;2022-12-18T05:14:08;41.23;;;17.40;;
20966;SDS011;10642;50.682;18.510;2022-12-18T05:16:35;41.50;;;15.67;;
20966;SDS011;10642;50.682;18.510;2022-12-18T05:19:02;48.30;;;16.97;;
20966;SDS011;10642;50.682;18.510;2022-12-18T05:21:28;48.90;;;16.80;;
20966;SDS011;10642;50.682;18.510;2022-12-18T05:23:55;46.57;;;18.40;;
20966;SDS011;10642;50.682;18.510;2022-12-18T05:26:22;53.93;;;18.47;;
20966;SDS011;10642;50.682;18.510;2022-12-18T05:28:49;51.00;;;20.03;;
20966;SDS011;10642;50.682;18.510;2022-12-18T05:31:16;45.63;;;18.07;;
20966;SDS011;10642;50.682;18.510;2022-12-18T05:33:43;49.10;;;18.97;;
20966;SDS011;10642;50.682;18.510;2022-12-18T05:36:10;53.73;;;18.57;;
20966;SDS011;10642;50.682;18.510;2022-12-18T05:38:38;50.60;;;18.80;;
20966;SDS011;10642;50.682;18.510;2022-12-18T05:41:05;47.67;;;18.07;;
20966;SDS011;10642;50.682;18.510;2022-12-18T05:43:33;42.67;;;14.37;;
20966;SDS011;10642;50.682;18.510;2022-12-18T05:46:08;38.40;;;13.03;;
20966;SDS011;10642;50.682;18.510;2022-12-18T05:48:35;47.90;;;16.70;;
20966;SDS011;10642;50.682;18.510;2022-12-18T05:51:06;47.30;;;17.57;;
20966;SDS011;10642;50.682;18.510;2022-12-18T05:53:33;46.83;;;16.53;;
20966;SDS011;10642;50.682;18.510;2022-12-18T05:56:01;46.90;;;16.13;;
20966;SDS011;10642;50.682;18.510;2022-12-18T05:58:28;43.90;;;17.97;;
20966;SDS011;10642;50.682;18.510;2022-12-18T06:00:55;47.40;;;17.70;;
20966;SDS011;10642;50.682;18.510;2022-12-18T06:03:22;45.87;;;17.03;;
20966;SDS011;10642;50.682;18.510;2022-12-18T06:05:56;43.57;;;15.90;;
20966;SDS011;10642;50.682;18.510;2022-12-18T06:08:23;41.13;;;15.03;;
20966;SDS011;10642;50.682;18.510;2022-12-18T06:10:50;35.57;;;13.37;;
20966;SDS011;10642;50.682;18.510;2022-12-18T06:13:18;47.17;;;18.93;;
20966;SDS011;10642;50.682;18.510;2022-12-18T06:15:45;43.13;;;16.37;;
20966;SDS011;10642;50.682;18.510;2022-12-18T06:18:12;48.07;;;15.37;;
20966;SDS011;10642;50.682;18.510;2022-12-18T06:20:39;42.10;;;15.87;;
20966;SDS011;10642;50.682;18.510;2022-12-18T06:23:07;47.87;;;15.87;;
20966;SDS011;10642;50.682;18.510;2022-12-18T06:25:37;42.07;;;16.33;;
20966;SDS011;10642;50.682;18.510;2022-12-18T06:28:04;40.10;;;14.93;;
20966;SDS011;10642;50.682;18.510;2022-12-18T06:30:31;46.60;;;15.10;;
20966;SDS011;10642;50.682;18.510;2022-12-18T06:32:57;42.27;;;14.97;;
20966;SDS011;10642;50.682;18.510;2022-12-18T06:35:24;47.67;;;17.30;;
20966;SDS011;10642;50.682;18.510;2022-12-18T06:37:51;44.63;;;16.90;;
20966;SDS011;10642;50.682;18.510;2022-12-18T06:40:18;46.33;;;17.63;;
20966;SDS011;10642;50.682;18.510;2022-12-18T06:42:45;44.30;;;16.93;;
20966;SDS011;10642;50.682;18.510;2022-12-18T06:45:12;48.70;;;17.83;;
20966;SDS011;10642;50.682;18.510;2022-12-18T06:47:39;42.43;;;16.00;;
20966;SDS011;10642;50.682;18.510;2022-12-18T06:50:06;39.23;;;15.87;;
20966;SDS011;10642;50.682;18.510;2022-12-18T06:52:33;43.63;;;16.27;;
20966;SDS011;10642;50.682;18.510;2022-12-18T06:55:00;51.77;;;17.53;;
20966;SDS011;10642;50.682;18.510;2022-12-18T06:57:27;49.43;;;16.07;;
20966;SDS011;10642;50.682;18.510;2022-12-18T06:59:54;43.93;;;17.00;;
20966;SDS011;10642;50.682;18.510;2022-12-18T07:02:21;41.53;;;15.50;;
20966;SDS011;10642;50.682;18.510;2022-12-18T07:04:49;51.73;;;17.97;;
20966;SDS011;10642;50.682;18.510;2022-12-18T07:07:16;51.63;;;18.83;;
20966;SDS011;10642;50.682;18.510;2022-12-18T07:09:43;44.30;;;17.93;;
20966;SDS011;10642;50.682;18.510;2022-12-18T07:12:10;39.03;;;16.10;;
20966;SDS011;10642;50.682;18.510;2022-12-18T07:14:37;45.60;;;19.40;;
20966;SDS011;10642;50.682;18.510;2022-12-18T07:17:04;65.13;;;31.47;;
20966;SDS011;10642;50.682;18.510;2022-12-18T07:19:31;48.70;;;18.43;;
20966;SDS011;10642;50.682;18.510;2022-12-18T07:21:58;45.93;;;17.27;;
20966;SDS011;10642;50.682;18.510;2022-12-18T07:24:25;47.13;;;18.13;;
20966;SDS011;10642;50.682;18.510;2022-12-18T07:26:52;47.47;;;16.60;;
20966;SDS011;10642;50.682;18.510;2022-12-18T07:29:19;40.17;;;15.43;;
20966;SDS011;10642;50.682;18.510;2022-12-18T07:31:46;41.30;;;16.10;;
20966;SDS011;10642;50.682;18.510;2022-12-18T07:34:13;48.00;;;17.80;;
20966;SDS011;10642;50.682;18.510;2022-12-18T07:36:41;50.63;;;18.67;;
20966;SDS011;10642;50.682;18.510;2022-12-18T07:39:10;46.30;;;17.73;;
20966;SDS011;10642;50.682;18.510;2022-12-18T07:41:37;50.67;;;18.37;;
20966;SDS011;10642;50.682;18.510;2022-12-18T07:44:14;55.50;;;19.97;;
20966;SDS011;10642;50.682;18.510;2022-12-18T07:46:41;50.70;;;21.47;;
20966;SDS011;10642;50.682;18.510;2022-12-18T07:49:08;47.90;;;19.40;;
20966;SDS011;10642;50.682;18.510;2022-12-18T07:51:35;47.73;;;18.30;;
20966;SDS011;10642;50.682;18.510;2022-12-18T07:54:02;48.03;;;17.67;;
20966;SDS011;10642;50.682;18.510;2022-12-18T07:56:28;51.77;;;19.73;;
20966;SDS011;10642;50.682;18.510;2022-12-18T07:58:57;51.70;;;20.87;;
20966;SDS011;10642;50.682;18.510;2022-12-18T08:01:30;43.63;;;16.50;;
20966;SDS011;10642;50.682;18.510;2022-12-18T08:03:57;57.43;;;22.57;;
20966;SDS011;10642;50.682;18.510;2022-12-18T08:06:24;48.87;;;20.60;;
20966;SDS011;10642;50.682;18.510;2022-12-18T08:08:52;47.40;;;17.20;;
20966;SDS011;10642;50.682;18.510;2022-12-18T08:11:19;43.23;;;14.93;;
20966;SDS011;10642;50.682;18.510;2022-12-18T08:13:46;43.20;;;15.00;;
20966;SDS011;10642;50.682;18.510;2022-12-18T08:16:14;52.77;;;22.67;;
20966;SDS011;10642;50.682;18.510;2022-12-18T08:18:41;48.20;;;18.90;;
20966;SDS011;10642;50.682;18.510;2022-12-18T08:21:09;45.30;;;16.13;;
20966;SDS011;10642;50.682;18.510;2022-12-18T08:23:36;45.77;;;15.93;;
20966;SDS011;10642;50.682;18.510;2022-12-18T08:26:09;53.77;;;18.50;;
20966;SDS011;10642;50.682;18.510;2022-12-18T08:28:36;53.37;;;21.37;;
20966;SDS011;10642;50.682;18.510;2022-12-18T08:31:02;54.93;;;21.53;;
20966;SDS011;10642;50.682;18.510;2022-12-18T08:33:30;45.57;;;17.07;;
20966;SDS011;10642;50.682;18.510;2022-12-18T08:36:00;43.50;;;14.50;;
20966;SDS011;10642;50.682;18.510;2022-12-18T08:38:28;43.00;;;16.33;;
20966;SDS011;10642;50.682;18.510;2022-12-18T08:41:05;50.07;;;16.73;;
20966;SDS011;10642;50.682;18.510;2022-12-18T08:43:32;49.93;;;17.20;;
20966;SDS011;10642;50.682;18.510;2022-12-18T08:46:18;51.30;;;17.37;;
20966;SDS011;10642;50.682;18.510;2022-12-18T08:48:45;50.90;;;18.50;;
20966;SDS011;10642;50.682;18.510;2022-12-18T08:51:12;64.63;;;24.23;;
20966;SDS011;10642;50.682;18.510;2022-12-18T08:53:39;70.87;;;22.43;;
20966;SDS011;10642;50.682;18.510;2022-12-18T08:56:07;76.17;;;25.07;;
20966;SDS011;10642;50.682;18.510;2022-12-18T08:58:34;67.10;;;25.23;;
20966;SDS011;10642;50.682;18.510;2022-12-18T09:01:01;66.93;;;22.87;;
20966;SDS011;10642;50.682;18.510;2022-12-18T09:03:28;73.00;;;26.27;;
20966;SDS011;10642;50.682;18.510;2022-12-18T09:05:55;66.17;;;23.77;;
20966;SDS011;10642;50.682;18.510;2022-12-18T09:08:22;73.00;;;25.40;;
20966;SDS011;10642;50.682;18.510;2022-12-18T09:10:51;74.27;;;27.40;;
20966;SDS011;10642;50.682;18.510;2022-12-18T09:13:18;84.23;;;28.27;;
20966;SDS011;10642;50.682;18.510;2022-12-18T09:15:46;73.70;;;23.97;;
20966;SDS011;10642;50.682;18.510;2022-12-18T09:18:14;83.17;;;30.17;;
20966;SDS011;10642;50.682;18.510;2022-12-18T09:20:41;88.53;;;31.23;;
20966;SDS011;10642;50.682;18.510;2022-12-18T09:23:08;72.47;;;25.23;;
20966;SDS011;10642;50.682;18.510;2022-12-18T09:25:35;72.57;;;23.67;;
20966;SDS011;10642;50.682;18.510;2022-12-18T09:28:03;68.77;;;21.97;;
20966;SDS011;10642;50.682;18.510;2022-12-18T09:30:30;70.13;;;24.40;;
20966;SDS011;10642;50.682;18.510;2022-12-18T09:33:00;72.27;;;25.93;;
20966;SDS011;10642;50.682;18.510;2022-12-18T09:35:27;64.97;;;22.87;;
20966;SDS011;10642;50.682;18.510;2022-12-18T09:37:54;69.70;;;23.67;;
20966;SDS011;10642;50.682;18.510;2022-12-18T09:40:23;69.27;;;24.27;;
20966;SDS011;10642;50.682;18.510;2022-12-18T09:42:56;71.37;;;24.00;;
20966;SDS011;10642;50.682;18.510;2022-12-18T09:45:24;77.93;;;25.03;;
20966;SDS011;10642;50.682;18.510;2022-12-18T09:47:52;72.43;;;24.30;;
20966;SDS011;10642;50.682;18.510;2022-12-18T09:52:48;69.83;;;23.87;;
20966;SDS011;10642;50.682;18.510;2022-12-18T09:57:54;73.70;;;24.77;;
20966;SDS011;10642;50.682;18.510;2022-12-18T10:00:23;74.17;;;23.87;;
20966;SDS011;10642;50.682;18.510;2022-12-18T10:02:52;63.37;;;22.43;;
20966;SDS011;10642;50.682;18.510;2022-12-18T10:10:46;60.47;;;22.60;;
20966;SDS011;10642;50.682;18.510;2022-12-18T10:15:49;53.83;;;19.10;;
20966;SDS011;10642;50.682;18.510;2022-12-18T10:20:49;65.30;;;21.67;;
20966;SDS011;10642;50.682;18.510;2022-12-18T10:28:19;54.53;;;18.77;;
20966;SDS011;10642;50.682;18.510;2022-12-18T10:30:47;59.50;;;19.77;;
20966;SDS011;10642;50.682;18.510;2022-12-18T10:33:19;58.47;;;21.70;;
20966;SDS011;10642;50.682;18.510;2022-12-18T10:35:47;60.03;;;20.57;;
20966;SDS011;10642;50.682;18.510;2022-12-18T10:40:48;53.27;;;20.23;;
20966;SDS011;10642;50.682;18.510;2022-12-18T10:43:19;54.33;;;19.37;;
20966;SDS011;10642;50.682;18.510;2022-12-18T10:45:57;51.33;;;18.30;;
20966;SDS011;10642;50.682;18.510;2022-12-18T10:48:24;53.73;;;18.80;;
20966;SDS011;10642;50.682;18.510;2022-12-18T10:50:51;49.23;;;17.47;;
20966;SDS011;10642;50.682;18.510;2022-12-18T10:53:38;54.33;;;18.20;;
20966;SDS011;10642;50.682;18.510;2022-12-18T10:56:06;60.60;;;20.43;;
20966;SDS011;10642;50.682;18.510;2022-12-18T10:58:34;56.83;;;20.27;;
20966;SDS011;10642;50.682;18.510;2022-12-18T11:01:03;128.93;;;48.03;;
20966;SDS011;10642;50.682;18.510;2022-12-18T11:03:46;81.27;;;34.77;;
20966;SDS011;10642;50.682;18.510;2022-12-18T11:06:28;53.10;;;18.80;;
20966;SDS011;10642;50.682;18.510;2022-12-18T11:09:02;39.80;;;16.37;;
20966;SDS011;10642;50.682;18.510;2022-12-18T11:11:39;38.53;;;13.50;;
20966;SDS011;10642;50.682;18.510;2022-12-18T11:14:14;44.40;;;15.43;;
20966;SDS011;10642;50.682;18.510;2022-12-18T11:16:44;44.73;;;16.43;;
20966;SDS011;10642;50.682;18.510;2022-12-18T11:21:59;43.43;;;17.20;;
20966;SDS011;10642;50.682;18.510;2022-12-18T11:27:03;45.10;;;16.00;;
20966;SDS011;10642;50.682;18.510;2022-12-18T11:29:35;44.27;;;16.43;;
20966;SDS011;10642;50.682;18.510;2022-12-18T11:34:42;37.00;;;14.87;;
20966;SDS011;10642;50.682;18.510;2022-12-18T11:37:11;39.93;;;14.20;;
20966;SDS011;10642;50.682;18.510;2022-12-18T11:39:46;45.00;;;16.10;;
20966;SDS011;10642;50.682;18.510;2022-12-18T11:42:20;41.17;;;16.53;;
20966;SDS011;10642;50.682;18.510;2022-12-18T11:44:49;42.27;;;15.30;;
20966;SDS011;10642;50.682;18.510;2022-12-18T11:49:43;56.00;;;17.17;;
20966;SDS011;10642;50.682;18.510;2022-12-18T11:54:40;42.77;;;15.87;;
20966;SDS011;10642;50.682;18.510;2022-12-18T12:12:51;43.33;;;15.97;;
20966;SDS011;10642;50.682;18.510;2022-12-18T12:15:28;43.37;;;15.57;;
20966;SDS011;10642;50.682;18.510;2022-12-18T12:20:26;40.73;;;14.50;;
20966;SDS011;10642;50.682;18.510;2022-12-18T12:23:04;40.03;;;14.37;;
20966;SDS011;10642;50.682;18.510;2022-12-18T12:36:13;45.00;;;17.37;;
20966;SDS011;10642;50.682;18.510;2022-12-18T12:38:42;43.37;;;17.33;;
20966;SDS011;10642;50.682;18.510;2022-12-18T12:41:18;42.73;;;15.57;;
20966;SDS011;10642;50.682;18.510;2022-12-18T12:44:06;42.30;;;15.17;;
20966;SDS011;10642;50.682;18.510;2022-12-18T12:46:36;39.20;;;15.67;;
20966;SDS011;10642;50.682;18.510;2022-12-18T12:49:09;38.67;;;14.83;;
20966;SDS011;10642;50.682;18.510;2022-12-18T12:51:39;37.07;;;15.10;;
20966;SDS011;10642;50.682;18.510;2022-12-18T12:54:17;42.97;;;16.07;;
20966;SDS011;10642;50.682;18.510;2022-12-18T12:56:51;45.50;;;16.53;;
20966;SDS011;10642;50.682;18.510;2022-12-18T13:07:39;59.07;;;22.53;;
20966;SDS011;10642;50.682;18.510;2022-12-18T13:18:02;46.43;;;17.23;;
20966;SDS011;10642;50.682;18.510;2022-12-18T13:20:33;42.33;;;17.53;;
20966;SDS011;10642;50.682;18.510;2022-12-18T13:23:18;44.93;;;16.70;;
20966;SDS011;10642;50.682;18.510;2022-12-18T13:25:47;50.97;;;17.70;;
20966;SDS011;10642;50.682;18.510;2022-12-18T13:28:14;53.13;;;18.83;;
20966;SDS011;10642;50.682;18.510;2022-12-18T13:30:46;45.63;;;18.40;;
20966;SDS011;10642;50.682;18.510;2022-12-18T13:35:50;53.37;;;18.57;;
20966;SDS011;10642;50.682;18.510;2022-12-18T13:38:40;53.13;;;20.27;;
20966;SDS011;10642;50.682;18.510;2022-12-18T13:43:46;55.47;;;20.07;;
20966;SDS011;10642;50.682;18.510;2022-12-18T13:48:57;56.07;;;21.63;;
20966;SDS011;10642;50.682;18.510;2022-12-18T13:51:24;62.20;;;21.57;;
20966;SDS011;10642;50.682;18.510;2022-12-18T13:53:57;57.80;;;21.43;;
20966;SDS011;10642;50.682;18.510;2022-12-18T13:56:28;57.27;;;20.47;;
20966;SDS011;10642;50.682;18.510;2022-12-18T13:59:15;58.63;;;22.43;;
20966;SDS011;10642;50.682;18.510;2022-12-18T14:01:51;55.83;;;22.27;;
20966;SDS011;10642;50.682;18.510;2022-12-18T14:04:23;61.57;;;24.83;;
20966;SDS011;10642;50.682;18.510;2022-12-18T14:07:04;54.47;;;21.33;;
20966;SDS011;10642;50.682;18.510;2022-12-18T14:09:37;54.50;;;21.97;;
20966;SDS011;10642;50.682;18.510;2022-12-18T14:12:06;55.00;;;21.60;;
20966;SDS011;10642;50.682;18.510;2022-12-18T14:14:52;63.27;;;27.13;;
20966;SDS011;10642;50.682;18.510;2022-12-18T14:17:20;63.27;;;25.33;;
20966;SDS011;10642;50.682;18.510;2022-12-18T14:19:48;61.30;;;23.20;;
20966;SDS011;10642;50.682;18.510;2022-12-18T14:22:34;59.20;;;23.70;;
20966;SDS011;10642;50.682;18.510;2022-12-18T14:25:14;60.60;;;25.47;;
20966;SDS011;10642;50.682;18.510;2022-12-18T14:27:46;67.90;;;27.47;;
20966;SDS011;10642;50.682;18.510;2022-12-18T14:30:29;68.20;;;27.73;;
20966;SDS011;10642;50.682;18.510;2022-12-18T14:33:09;88.13;;;35.60;;
20966;SDS011;10642;50.682;18.510;2022-12-18T14:35:38;88.07;;;33.80;;
20966;SDS011;10642;50.682;18.510;2022-12-18T14:40:36;127.40;;;46.03;;
20966;SDS011;10642;50.682;18.510;2022-12-18T14:43:03;116.27;;;42.63;;
20966;SDS011;10642;50.682;18.510;2022-12-18T14:48:16;110.93;;;43.00;;
20966;SDS011;10642;50.682;18.510;2022-12-18T14:50:56;112.70;;;41.97;;
20966;SDS011;10642;50.682;18.510;2022-12-18T14:53:28;118.83;;;44.70;;
20966;SDS011;10642;50.682;18.510;2022-12-18T14:55:58;150.63;;;51.47;;
20966;SDS011;10642;50.682;18.510;2022-12-18T14:58:25;124.20;;;43.47;;
20966;SDS011;10642;50.682;18.510;2022-12-18T15:00:53;109.47;;;42.53;;
20966;SDS011;10642;50.682;18.510;2022-12-18T15:03:21;115.60;;;41.93;;
20966;SDS011;10642;50.682;18.510;2022-12-18T15:05:48;120.10;;;45.10;;
20966;SDS011;10642;50.682;18.510;2022-12-18T15:08:29;116.50;;;46.53;;
20966;SDS011;10642;50.682;18.510;2022-12-18T15:10:56;113.83;;;42.90;;
20966;SDS011;10642;50.682;18.510;2022-12-18T15:13:23;185.70;;;73.07;;
20966;SDS011;10642;50.682;18.510;2022-12-18T15:15:52;136.50;;;52.07;;
20966;SDS011;10642;50.682;18.510;2022-12-18T15:18:20;133.63;;;55.23;;
20966;SDS011;10642;50.682;18.510;2022-12-18T15:20:55;133.83;;;52.90;;
20966;SDS011;10642;50.682;18.510;2022-12-18T15:23:34;126.23;;;48.70;;
20966;SDS011;10642;50.682;18.510;2022-12-18T15:26:07;144.20;;;54.90;;
20966;SDS011;10642;50.682;18.510;2022-12-18T15:28:39;133.17;;;50.87;;
20966;SDS011;10642;50.682;18.510;2022-12-18T15:33:43;146.83;;;54.37;;
20966;SDS011;10642;50.682;18.510;2022-12-18T15:36:13;142.70;;;54.93;;
20966;SDS011;10642;50.682;18.510;2022-12-18T15:38:46;148.23;;;56.40;;
20966;SDS011;10642;50.682;18.510;2022-12-18T15:41:13;155.53;;;57.17;;
20966;SDS011;10642;50.682;18.510;2022-12-18T15:43:48;165.13;;;64.50;;
20966;SDS011;10642;50.682;18.510;2022-12-18T15:46:17;157.17;;;59.20;;
20966;SDS011;10642;50.682;18.510;2022-12-18T15:48:46;148.90;;;58.93;;
20966;SDS011;10642;50.682;18.510;2022-12-18T15:53:42;163.00;;;61.17;;
20966;SDS011;10642;50.682;18.510;2022-12-18T15:56:10;150.47;;;60.23;;
20966;SDS011;10642;50.682;18.510;2022-12-18T15:58:57;155.83;;;60.40;;
20966;SDS011;10642;50.682;18.510;2022-12-18T16:01:25;206.20;;;75.60;;
20966;SDS011;10642;50.682;18.510;2022-12-18T16:03:52;194.83;;;70.83;;
20966;SDS011;10642;50.682;18.510;2022-12-18T16:06:23;209.53;;;75.03;;
20966;SDS011;10642;50.682;18.510;2022-12-18T16:08:50;230.33;;;83.07;;
20966;SDS011;10642;50.682;18.510;2022-12-18T16:13:45;151.70;;;61.43;;
20966;SDS011;10642;50.682;18.510;2022-12-18T16:16:12;217.77;;;79.57;;
20966;SDS011;10642;50.682;18.510;2022-12-18T16:18:39;156.00;;;61.33;;
20966;SDS011;10642;50.682;18.510;2022-12-18T16:21:07;243.37;;;93.93;;
20966;SDS011;10642;50.682;18.510;2022-12-18T16:23:34;174.50;;;65.23;;
20966;SDS011;10642;50.682;18.510;2022-12-18T16:26:01;160.00;;;63.27;;
20966;SDS011;10642;50.682;18.510;2022-12-18T16:28:29;191.20;;;75.07;;
20966;SDS011;10642;50.682;18.510;2022-12-18T16:30:56;200.77;;;76.97;;
20966;SDS011;10642;50.682;18.510;2022-12-18T16:33:22;203.60;;;78.07;;
20966;SDS011;10642;50.682;18.510;2022-12-18T16:35:52;180.30;;;74.27;;